APL Coral — WDF6832 — position and weather

sailwx.info

Track history (hours):
 
Tides and Currents Weather Stations Pressure Air Temp Water Temp Dewpoint Dewpoint Depression Visibility Wind Speed Wind Dir Waves Ship Positions

APL Coral

Owner: APL Maritime Ltd., Bethesda, MD. More information available from US FCC via Universal Licensing System and Coast Guard Vessel Documentation Center.

Last reported at 2016-May-28 13:32 UTC. Time now 2016-May-31 07:49 UTC.
Position N 01°16' E 104°09'.

Length 275 m; draft 9.3 m.

Type: Cargo ship. MMSI: 367478280.

Date/timePositionNaut miles runAvg speedWind from/ knotsBaromVisibWave heightAir tempDewpointWater temp
2016-May-28 13:32N 01°16' E 104°09'1414.7
2016-May-28 12:33N 01°13' E 103°55'5 4.7
2016-May-28 11:33N 01°16' E 103°51'0 0.0
2016-May-28 10:33N 01°16' E 103°51'0 0.0
2016-May-28 09:34N 01°16' E 103°51'0 0.0
2016-May-28 08:33N 01°16' E 103°51'0 0.0
2016-May-28 07:34N 01°16' E 103°51'0 0.0
2016-May-28 06:33N 01°16' E 103°51'0 0.0
2016-May-28 05:34N 01°16' E 103°51'0 0.0
2016-May-28 04:33N 01°16' E 103°51'0 0.0
2016-May-28 03:34N 01°16' E 103°51'0 0.0
2016-May-28 02:34N 01°16' E 103°51'0 0.0
2016-May-28 01:33N 01°16' E 103°51'0 0.0
2016-May-28 00:33N 01°16' E 103°51'1 1.0
2016-May-27 23:33N 01°15' E 103°52'3 3.2
2016-May-27 22:33N 01°12' E 103°51'5 5.2
2016-May-27 21:34N 01°16' E 103°47'0 0.0
2016-May-27 20:33N 01°16' E 103°47'0 0.1
2016-May-27 19:27N 01°16' E 103°47'0 0.1
2016-May-27 18:33N 01°16' E 103°47'0 0.0
2016-May-27 17:24N 01°16' E 103°47'0 0.1
2016-May-27 16:33N 01°16' E 103°47'0 0.1
2016-May-27 15:33N 01°16' E 103°47'0 0.0
2016-May-27 14:30N 01°16' E 103°47'0 0.1
2016-May-27 13:27N 01°16' E 103°47'0 0.1
2016-May-27 12:24N 01°16' E 103°47'0 0.0
2016-May-27 11:33N 01°16' E 103°47'0 0.0
2016-May-27 10:33N 01°16' E 103°47'0 0.1
2016-May-27 09:21N 01°16' E 103°47'2 3.0
2016-May-27 08:33N 01°13' E 103°47'9 8.6
2016-May-27 07:33N 01°16' E 103°56'1 1.1
2016-May-27 06:33N 01°17' E 103°56'0 0.1
2016-May-27 05:33N 01°17' E 103°56'0 0.1
2016-May-27 04:15N 01°17' E 103°56'0 0.0
2016-May-27 03:21N 01°17' E 103°56'0 0.0
2016-May-27 02:30N 01°17' E 103°56'0 0.1
2016-May-27 01:27N 01°17' E 103°56'0 0.0
2016-May-27 00:33N 01°17' E 103°56'0 0.0
2016-May-26 23:27N 01°17' E 103°56'0 0.0
2016-May-26 22:30N 01°17' E 103°56'0 0.0
2016-May-26 21:33N 01°17' E 103°56'0 0.0
2016-May-26 20:33N 01°17' E 103°56'0 0.0
2016-May-26 19:33N 01°17' E 103°56'0 0.0
2016-May-26 18:33N 01°17' E 103°56'0 0.0
2016-May-26 17:27N 01°17' E 103°56'0 0.1
2016-May-26 16:30N 01°17' E 103°56'0 0.1
2016-May-26 15:09N 01°17' E 103°56'0 0.0
2016-May-26 14:33N 01°17' E 103°56'0 0.1
2016-May-26 13:33N 01°17' E 103°56'0 0.1
2016-May-26 12:27N 01°17' E 103°56'0 0.0
2016-May-26 10:30N 01°17' E 103°56'0 0.0
2016-May-26 09:33N 01°17' E 103°56'0 0.0
2016-May-26 08:30N 01°17' E 103°56'0 0.0
2016-May-26 07:33N 01°17' E 103°56'0 0.0
2016-May-26 06:33N 01°17' E 103°56'0 0.0
2016-May-26 05:33N 01°17' E 103°56'0 0.1
2016-May-26 04:33N 01°17' E 103°56'0 0.0
2016-May-26 03:27N 01°17' E 103°56'0 0.0
2016-May-26 02:33N 01°17' E 103°56'0 0.0
2016-May-26 01:30N 01°17' E 103°56'0 0.1
2016-May-26 00:33N 01°17' E 103°56'0 0.0
2016-May-25 23:29N 01°17' E 103°56'0 0.0
2016-May-25 22:21N 01°17' E 103°56'0 0.0
2016-May-25 21:27N 01°17' E 103°56'0 0.1
2016-May-25 20:33N 01°17' E 103°56'0 0.0
2016-May-25 19:33N 01°17' E 103°56'0 0.0
2016-May-25 18:33N 01°17' E 103°56'0 0.0
2016-May-25 17:33N 01°17' E 103°56'0 0.2
2016-May-25 16:33N 01°17' E 103°56'5 4.8
2016-May-25 15:33N 01°14' E 103°52'1 1.0
2016-May-25 14:33N 01°14' E 103°53'7 7.1
2016-May-25 13:33N 01°10' E 103°47'1111.3
2016-May-25 12:33N 01°04' E 103°38'1211.8
2016-May-25 11:33N 01°10' E 103°28'4911.2
2016-May-25 07:12N 01°38' E 102°47'711.1
2016-May-25 06:33N 01°40' E 102°41'1111.3
2016-May-25 05:33N 01°45' E 102°30'1211.8
2016-May-25 04:30N 01°51' E 102°19'  
Track history (hours):
 
Tides and Currents Weather Stations Pressure Air Temp Water Temp Dewpoint Dewpoint Depression Visibility Wind Speed Wind Dir Waves Ship Positions

APL Coral

Owner: APL Maritime Ltd., Bethesda, MD. More information available from US FCC via Universal Licensing System and Coast Guard Vessel Documentation Center.

Last reported at 2016-May-28 13:32 UTC. Time now 2016-May-31 07:49 UTC.
Position N 01°16' E 104°09'.

Length 275 m; draft 9.3 m.

Type: Cargo ship. MMSI: 367478280.

Date/timePositionNaut miles runAvg speedWind from/ knotsBaromVisibWave heightAir tempDewpointWater temp
2016-May-28 13:32N 01°16' E 104°09'1414.7
2016-May-28 12:33N 01°13' E 103°55'5 4.7
2016-May-28 11:33N 01°16' E 103°51'0 0.0
2016-May-28 10:33N 01°16' E 103°51'0 0.0
2016-May-28 09:34N 01°16' E 103°51'0 0.0
2016-May-28 08:33N 01°16' E 103°51'0 0.0
2016-May-28 07:34N 01°16' E 103°51'0 0.0
2016-May-28 06:33N 01°16' E 103°51'0 0.0
2016-May-28 05:34N 01°16' E 103°51'0 0.0
2016-May-28 04:33N 01°16' E 103°51'0 0.0
2016-May-28 03:34N 01°16' E 103°51'0 0.0
2016-May-28 02:34N 01°16' E 103°51'0 0.0
2016-May-28 01:33N 01°16' E 103°51'0 0.0
2016-May-28 00:33N 01°16' E 103°51'1 1.0
2016-May-27 23:33N 01°15' E 103°52'3 3.2
2016-May-27 22:33N 01°12' E 103°51'5 5.2
2016-May-27 21:34N 01°16' E 103°47'0 0.0
2016-May-27 20:33N 01°16' E 103°47'0 0.1
2016-May-27 19:27N 01°16' E 103°47'0 0.1
2016-May-27 18:33N 01°16' E 103°47'0 0.0
2016-May-27 17:24N 01°16' E 103°47'0 0.1
2016-May-27 16:33N 01°16' E 103°47'0 0.1
2016-May-27 15:33N 01°16' E 103°47'0 0.0
2016-May-27 14:30N 01°16' E 103°47'0 0.1
2016-May-27 13:27N 01°16' E 103°47'0 0.1
2016-May-27 12:24N 01°16' E 103°47'0 0.0
2016-May-27 11:33N 01°16' E 103°47'0 0.0
2016-May-27 10:33N 01°16' E 103°47'0 0.1
2016-May-27 09:21N 01°16' E 103°47'2 3.0
2016-May-27 08:33N 01°13' E 103°47'9 8.6
2016-May-27 07:33N 01°16' E 103°56'1 1.1
2016-May-27 06:33N 01°17' E 103°56'0 0.1
2016-May-27 05:33N 01°17' E 103°56'0 0.1
2016-May-27 04:15N 01°17' E 103°56'0 0.0
2016-May-27 03:21N 01°17' E 103°56'0 0.0
2016-May-27 02:30N 01°17' E 103°56'0 0.1
2016-May-27 01:27N 01°17' E 103°56'0 0.0
2016-May-27 00:33N 01°17' E 103°56'0 0.0
2016-May-26 23:27N 01°17' E 103°56'0 0.0
2016-May-26 22:30N 01°17' E 103°56'0 0.0
2016-May-26 21:33N 01°17' E 103°56'0 0.0
2016-May-26 20:33N 01°17' E 103°56'0 0.0
2016-May-26 19:33N 01°17' E 103°56'0 0.0
2016-May-26 18:33N 01°17' E 103°56'0 0.0
2016-May-26 17:27N 01°17' E 103°56'0 0.1
2016-May-26 16:30N 01°17' E 103°56'0 0.1
2016-May-26 15:09N 01°17' E 103°56'0 0.0
2016-May-26 14:33N 01°17' E 103°56'0 0.1
2016-May-26 13:33N 01°17' E 103°56'0 0.1
2016-May-26 12:27N 01°17' E 103°56'0 0.0
2016-May-26 10:30N 01°17' E 103°56'0 0.0
2016-May-26 09:33N 01°17' E 103°56'0 0.0
2016-May-26 08:30N 01°17' E 103°56'0 0.0
2016-May-26 07:33N 01°17' E 103°56'0 0.0
2016-May-26 06:33N 01°17' E 103°56'0 0.0
2016-May-26 05:33N 01°17' E 103°56'0 0.1
2016-May-26 04:33N 01°17' E 103°56'0 0.0
2016-May-26 03:27N 01°17' E 103°56'0 0.0
2016-May-26 02:33N 01°17' E 103°56'0 0.0
2016-May-26 01:30N 01°17' E 103°56'0 0.1
2016-May-26 00:33N 01°17' E 103°56'0 0.0
2016-May-25 23:29N 01°17' E 103°56'0 0.0
2016-May-25 22:21N 01°17' E 103°56'0 0.0
2016-May-25 21:27N 01°17' E 103°56'0 0.1
2016-May-25 20:33N 01°17' E 103°56'0 0.0
2016-May-25 19:33N 01°17' E 103°56'0 0.0
2016-May-25 18:33N 01°17' E 103°56'0 0.0
2016-May-25 17:33N 01°17' E 103°56'0 0.2
2016-May-25 16:33N 01°17' E 103°56'5 4.8
2016-May-25 15:33N 01°14' E 103°52'1 1.0
2016-May-25 14:33N 01°14' E 103°53'7 7.1
2016-May-25 13:33N 01°10' E 103°47'1111.3
2016-May-25 12:33N 01°04' E 103°38'1211.8
2016-May-25 11:33N 01°10' E 103°28'4911.2
2016-May-25 07:12N 01°38' E 102°47'711.1
2016-May-25 06:33N 01°40' E 102°41'1111.3
2016-May-25 05:33N 01°45' E 102°30'1211.8
2016-May-25 04:30N 01°51' E 102°19'  

Dump ship's entire track history